sensor_id;sensor_type;location;lat;lon;timestamp;temperature;humidity
4962;DHT22;2496;52.468;13.342;2023-01-28T00:00:50;1.40;99.90
4962;DHT22;2496;52.468;13.342;2023-01-28T00:03:18;1.50;99.90
4962;DHT22;2496;52.468;13.342;2023-01-28T00:05:45;1.50;99.90
4962;DHT22;2496;52.468;13.342;2023-01-28T00:08:14;1.50;99.90
4962;DHT22;2496;52.468;13.342;2023-01-28T00:10:41;1.50;99.90
4962;DHT22;2496;52.468;13.342;2023-01-28T00:13:11;1.50;99.90
4962;DHT22;2496;52.468;13.342;2023-01-28T00:15:39;1.40;99.90
4962;DHT22;2496;52.468;13.342;2023-01-28T00:18:07;1.40;99.90
4962;DHT22;2496;52.468;13.342;2023-01-28T00:20:34;1.30;99.90
4962;DHT22;2496;52.468;13.342;2023-01-28T00:23:01;1.30;99.90
4962;DHT22;2496;52.468;13.342;2023-01-28T00:25:30;1.20;99.90
4962;DHT22;2496;52.468;13.342;2023-01-28T00:27:58;1.20;99.90
4962;DHT22;2496;52.468;13.342;2023-01-28T00:30:25;1.10;99.90
4962;DHT22;2496;52.468;13.342;2023-01-28T00:32:52;1.10;99.90
4962;DHT22;2496;52.468;13.342;2023-01-28T00:35:20;1.10;99.90
4962;DHT22;2496;52.468;13.342;2023-01-28T00:37:48;1.10;99.90
4962;DHT22;2496;52.468;13.342;2023-01-28T00:40:15;1.10;99.90
4962;DHT22;2496;52.468;13.342;2023-01-28T00:42:43;1.10;99.90
4962;DHT22;2496;52.468;13.342;2023-01-28T00:45:11;1.10;99.90
4962;DHT22;2496;52.468;13.342;2023-01-28T00:47:38;1.10;99.90
4962;DHT22;2496;52.468;13.342;2023-01-28T00:50:06;1.10;99.90
4962;DHT22;2496;52.468;13.342;2023-01-28T00:52:33;1.10;99.90
4962;DHT22;2496;52.468;13.342;2023-01-28T00:55:00;1.00;99.90
4962;DHT22;2496;52.468;13.342;2023-01-28T00:57:27;0.90;99.90
4962;DHT22;2496;52.468;13.342;2023-01-28T00:59:56;0.90;99.90
4962;DHT22;2496;52.468;13.342;2023-01-28T01:02:23;0.80;99.90
4962;DHT22;2496;52.468;13.342;2023-01-28T01:04:50;0.70;99.90
4962;DHT22;2496;52.468;13.342;2023-01-28T01:07:33;0.70;99.90
4962;DHT22;2496;52.468;13.342;2023-01-28T01:10:08;0.80;99.90
4962;DHT22;2496;52.468;13.342;2023-01-28T01:12:35;0.80;99.90
4962;DHT22;2496;52.468;13.342;2023-01-28T01:15:05;0.90;99.90
4962;DHT22;2496;52.468;13.342;2023-01-28T01:17:33;0.90;99.90
4962;DHT22;2496;52.468;13.342;2023-01-28T01:20:02;0.90;99.90
4962;DHT22;2496;52.468;13.342;2023-01-28T01:22:32;0.90;99.90
4962;DHT22;2496;52.468;13.342;2023-01-28T01:24:59;0.90;99.90
4962;DHT22;2496;52.468;13.342;2023-01-28T01:27:26;0.90;99.90
4962;DHT22;2496;52.468;13.342;2023-01-28T01:29:53;0.90;99.90
4962;DHT22;2496;52.468;13.342;2023-01-28T01:32:22;0.90;99.90
4962;DHT22;2496;52.468;13.342;2023-01-28T01:34:48;0.80;99.90
4962;DHT22;2496;52.468;13.342;2023-01-28T01:37:16;0.90;99.90
4962;DHT22;2496;52.468;13.342;2023-01-28T01:39:43;0.90;99.90
4962;DHT22;2496;52.468;13.342;2023-01-28T01:42:12;0.90;99.90
4962;DHT22;2496;52.468;13.342;2023-01-28T01:44:57;1.00;99.90
4962;DHT22;2496;52.468;13.342;2023-01-28T01:47:30;1.00;99.90
4962;DHT22;2496;52.468;13.342;2023-01-28T01:49:59;1.10;99.90
4962;DHT22;2496;52.468;13.342;2023-01-28T01:52:32;1.10;99.90
4962;DHT22;2496;52.468;13.342;2023-01-28T01:55:03;1.10;99.90
4962;DHT22;2496;52.468;13.342;2023-01-28T01:57:34;1.00;99.90
4962;DHT22;2496;52.468;13.342;2023-01-28T02:00:04;1.00;99.90
4962;DHT22;2496;52.468;13.342;2023-01-28T02:02:38;1.00;99.90
4962;DHT22;2496;52.468;13.342;2023-01-28T02:05:08;1.00;99.90
4962;DHT22;2496;52.468;13.342;2023-01-28T02:07:36;1.00;99.90
4962;DHT22;2496;52.468;13.342;2023-01-28T02:10:05;1.00;99.90
4962;DHT22;2496;52.468;13.342;2023-01-28T02:12:36;0.90;99.90
4962;DHT22;2496;52.468;13.342;2023-01-28T02:15:06;1.00;99.90
4962;DHT22;2496;52.468;13.342;2023-01-28T02:17:36;1.00;99.90
4962;DHT22;2496;52.468;13.342;2023-01-28T02:20:05;1.10;99.90
4962;DHT22;2496;52.468;13.342;2023-01-28T02:23:02;1.20;99.90
4962;DHT22;2496;52.468;13.342;2023-01-28T02:25:44;1.20;99.90
4962;DHT22;2496;52.468;13.342;2023-01-28T02:28:29;1.20;99.90
4962;DHT22;2496;52.468;13.342;2023-01-28T02:31:03;1.20;99.90
4962;DHT22;2496;52.468;13.342;2023-01-28T02:33:36;1.20;99.90
4962;DHT22;2496;52.468;13.342;2023-01-28T02:36:12;1.20;99.90
4962;DHT22;2496;52.468;13.342;2023-01-28T02:38:45;1.10;99.90
4962;DHT22;2496;52.468;13.342;2023-01-28T02:41:19;1.10;99.90
4962;DHT22;2496;52.468;13.342;2023-01-28T02:43:48;1.10;99.90
4962;DHT22;2496;52.468;13.342;2023-01-28T02:46:35;1.20;99.90
4962;DHT22;2496;52.468;13.342;2023-01-28T02:49:24;1.10;99.90
4962;DHT22;2496;52.468;13.342;2023-01-28T02:54:51;1.20;99.90
4962;DHT22;2496;52.468;13.342;2023-01-28T02:57:30;1.20;99.90
4962;DHT22;2496;52.468;13.342;2023-01-28T03:00:06;1.20;99.90
4962;DHT22;2496;52.468;13.342;2023-01-28T03:02:39;1.30;99.90
4962;DHT22;2496;52.468;13.342;2023-01-28T03:05:13;1.30;99.90
4962;DHT22;2496;52.468;13.342;2023-01-28T03:07:43;1.40;99.90
4962;DHT22;2496;52.468;13.342;2023-01-28T03:10:14;1.40;99.90
4962;DHT22;2496;52.468;13.342;2023-01-28T03:12:42;1.30;99.90
4962;DHT22;2496;52.468;13.342;2023-01-28T03:15:32;1.30;99.90
4962;DHT22;2496;52.468;13.342;2023-01-28T03:18:20;1.30;99.90
4962;DHT22;2496;52.468;13.342;2023-01-28T03:21:08;1.30;99.90
4962;DHT22;2496;52.468;13.342;2023-01-28T03:23:58;1.30;99.90
4962;DHT22;2496;52.468;13.342;2023-01-28T03:26:49;1.30;99.90
4962;DHT22;2496;52.468;13.342;2023-01-28T03:29:36;1.40;99.90
4962;DHT22;2496;52.468;13.342;2023-01-28T03:32:24;1.40;99.90
4962;DHT22;2496;52.468;13.342;2023-01-28T03:35:10;1.40;99.90
4962;DHT22;2496;52.468;13.342;2023-01-28T03:37:57;1.40;99.90
4962;DHT22;2496;52.468;13.342;2023-01-28T03:40:26;1.40;99.90
4962;DHT22;2496;52.468;13.342;2023-01-28T03:42:53;1.40;99.90
4962;DHT22;2496;52.468;13.342;2023-01-28T03:45:21;1.40;99.90
4962;DHT22;2496;52.468;13.342;2023-01-28T03:47:50;1.30;99.90
4962;DHT22;2496;52.468;13.342;2023-01-28T03:50:17;1.30;99.90
4962;DHT22;2496;52.468;13.342;2023-01-28T03:52:45;1.30;99.90
4962;DHT22;2496;52.468;13.342;2023-01-28T03:55:12;1.30;99.90
4962;DHT22;2496;52.468;13.342;2023-01-28T03:57:40;1.30;99.90
4962;DHT22;2496;52.468;13.342;2023-01-28T04:00:10;1.30;99.90
4962;DHT22;2496;52.468;13.342;2023-01-28T04:02:37;1.30;99.90
4962;DHT22;2496;52.468;13.342;2023-01-28T04:05:08;1.30;99.90
4962;DHT22;2496;52.468;13.342;2023-01-28T04:07:38;1.30;99.90
4962;DHT22;2496;52.468;13.342;2023-01-28T04:10:06;1.40;99.90
4962;DHT22;2496;52.468;13.342;2023-01-28T04:12:34;1.30;99.90
4962;DHT22;2496;52.468;13.342;2023-01-28T04:15:04;1.30;99.90
4962;DHT22;2496;52.468;13.342;2023-01-28T04:17:42;1.30;99.90
4962;DHT22;2496;52.468;13.342;2023-01-28T04:20:12;1.30;99.90
4962;DHT22;2496;52.468;13.342;2023-01-28T04:22:40;1.20;99.90
4962;DHT22;2496;52.468;13.342;2023-01-28T04:25:08;1.20;99.90
4962;DHT22;2496;52.468;13.342;2023-01-28T04:27:35;1.20;99.90
4962;DHT22;2496;52.468;13.342;2023-01-28T04:30:03;1.30;99.90
4962;DHT22;2496;52.468;13.342;2023-01-28T04:32:31;1.20;99.90
4962;DHT22;2496;52.468;13.342;2023-01-28T04:34:58;1.30;99.90
4962;DHT22;2496;52.468;13.342;2023-01-28T04:37:27;1.30;99.90
4962;DHT22;2496;52.468;13.342;2023-01-28T04:39:54;1.40;99.90
4962;DHT22;2496;52.468;13.342;2023-01-28T04:42:21;1.40;99.90
4962;DHT22;2496;52.468;13.342;2023-01-28T04:44:48;1.40;99.90
4962;DHT22;2496;52.468;13.342;2023-01-28T04:47:15;1.50;99.90
4962;DHT22;2496;52.468;13.342;2023-01-28T04:49:44;1.50;99.90
4962;DHT22;2496;52.468;13.342;2023-01-28T04:52:11;1.50;99.90
4962;DHT22;2496;52.468;13.342;2023-01-28T04:54:40;1.50;99.90
4962;DHT22;2496;52.468;13.342;2023-01-28T04:57:07;1.50;99.90
4962;DHT22;2496;52.468;13.342;2023-01-28T04:59:34;1.50;99.90
4962;DHT22;2496;52.468;13.342;2023-01-28T05:02:01;1.50;99.90
4962;DHT22;2496;52.468;13.342;2023-01-28T05:04:28;1.50;99.90
4962;DHT22;2496;52.468;13.342;2023-01-28T05:06:55;1.60;99.90
4962;DHT22;2496;52.468;13.342;2023-01-28T05:09:23;1.60;99.90
4962;DHT22;2496;52.468;13.342;2023-01-28T05:11:51;1.60;99.90
4962;DHT22;2496;52.468;13.342;2023-01-28T05:14:18;1.70;99.90
4962;DHT22;2496;52.468;13.342;2023-01-28T05:16:45;1.70;99.90
4962;DHT22;2496;52.468;13.342;2023-01-28T05:19:13;1.70;99.90
4962;DHT22;2496;52.468;13.342;2023-01-28T05:21:40;1.70;99.90
4962;DHT22;2496;52.468;13.342;2023-01-28T05:24:07;1.60;99.90
4962;DHT22;2496;52.468;13.342;2023-01-28T05:26:35;1.60;99.90
4962;DHT22;2496;52.468;13.342;2023-01-28T05:29:04;1.50;99.90
4962;DHT22;2496;52.468;13.342;2023-01-28T05:31:31;1.50;99.90
4962;DHT22;2496;52.468;13.342;2023-01-28T05:33:58;1.50;99.90
4962;DHT22;2496;52.468;13.342;2023-01-28T05:36:25;1.50;99.90
4962;DHT22;2496;52.468;13.342;2023-01-28T05:38:52;1.50;99.90
4962;DHT22;2496;52.468;13.342;2023-01-28T05:41:19;1.60;99.90
4962;DHT22;2496;52.468;13.342;2023-01-28T05:43:47;1.60;99.90
4962;DHT22;2496;52.468;13.342;2023-01-28T05:46:15;1.70;99.90
4962;DHT22;2496;52.468;13.342;2023-01-28T05:48:42;1.70;99.90
4962;DHT22;2496;52.468;13.342;2023-01-28T05:51:10;1.70;99.90
4962;DHT22;2496;52.468;13.342;2023-01-28T05:53:37;1.70;99.90
4962;DHT22;2496;52.468;13.342;2023-01-28T05:56:05;1.80;99.90
4962;DHT22;2496;52.468;13.342;2023-01-28T05:58:32;1.80;99.90
4962;DHT22;2496;52.468;13.342;2023-01-28T06:01:00;1.70;99.90
4962;DHT22;2496;52.468;13.342;2023-01-28T06:03:28;1.70;99.90
4962;DHT22;2496;52.468;13.342;2023-01-28T06:05:55;1.60;99.90
4962;DHT22;2496;52.468;13.342;2023-01-28T06:08:23;1.60;99.90
4962;DHT22;2496;52.468;13.342;2023-01-28T06:10:50;1.60;99.90
4962;DHT22;2496;52.468;13.342;2023-01-28T06:13:17;1.60;99.90
4962;DHT22;2496;52.468;13.342;2023-01-28T06:15:44;1.80;99.90
4962;DHT22;2496;52.468;13.342;2023-01-28T06:18:14;1.80;99.90
4962;DHT22;2496;52.468;13.342;2023-01-28T06:20:42;1.90;99.90
4962;DHT22;2496;52.468;13.342;2023-01-28T06:23:10;1.90;99.90
4962;DHT22;2496;52.468;13.342;2023-01-28T06:25:37;1.80;99.90
4962;DHT22;2496;52.468;13.342;2023-01-28T06:28:04;1.80;99.90
4962;DHT22;2496;52.468;13.342;2023-01-28T06:30:31;1.80;99.90
4962;DHT22;2496;52.468;13.342;2023-01-28T06:32:58;1.70;99.90
4962;DHT22;2496;52.468;13.342;2023-01-28T06:35:26;1.70;99.90
4962;DHT22;2496;52.468;13.342;2023-01-28T06:37:55;1.70;99.90
4962;DHT22;2496;52.468;13.342;2023-01-28T06:40:21;1.70;99.90
4962;DHT22;2496;52.468;13.342;2023-01-28T06:42:49;1.70;99.90
4962;DHT22;2496;52.468;13.342;2023-01-28T06:45:16;1.70;99.90
4962;DHT22;2496;52.468;13.342;2023-01-28T06:47:43;1.60;99.90
4962;DHT22;2496;52.468;13.342;2023-01-28T06:50:11;1.70;99.90
4962;DHT22;2496;52.468;13.342;2023-01-28T06:52:39;1.70;99.90
4962;DHT22;2496;52.468;13.342;2023-01-28T06:55:08;1.70;99.90
4962;DHT22;2496;52.468;13.342;2023-01-28T06:57:37;1.70;99.90
4962;DHT22;2496;52.468;13.342;2023-01-28T07:00:05;1.70;99.90
4962;DHT22;2496;52.468;13.342;2023-01-28T07:02:34;1.80;99.90
4962;DHT22;2496;52.468;13.342;2023-01-28T07:05:02;1.80;99.90
4962;DHT22;2496;52.468;13.342;2023-01-28T07:07:29;1.90;99.90
4962;DHT22;2496;52.468;13.342;2023-01-28T07:09:57;1.90;99.90
4962;DHT22;2496;52.468;13.342;2023-01-28T07:12:25;1.80;99.90
4962;DHT22;2496;52.468;13.342;2023-01-28T07:14:53;1.80;99.90
4962;DHT22;2496;52.468;13.342;2023-01-28T07:17:19;1.80;99.90
4962;DHT22;2496;52.468;13.342;2023-01-28T07:19:46;1.80;99.90
4962;DHT22;2496;52.468;13.342;2023-01-28T07:22:13;1.70;99.90
4962;DHT22;2496;52.468;13.342;2023-01-28T07:24:40;1.70;99.90
4962;DHT22;2496;52.468;13.342;2023-01-28T07:27:07;1.70;99.90
4962;DHT22;2496;52.468;13.342;2023-01-28T07:29:36;1.70;99.90
4962;DHT22;2496;52.468;13.342;2023-01-28T07:32:03;1.70;99.90
4962;DHT22;2496;52.468;13.342;2023-01-28T07:34:32;1.70;99.90
4962;DHT22;2496;52.468;13.342;2023-01-28T07:36:58;1.70;99.90
4962;DHT22;2496;52.468;13.342;2023-01-28T07:39:25;1.80;99.90
4962;DHT22;2496;52.468;13.342;2023-01-28T07:41:52;1.80;99.90
4962;DHT22;2496;52.468;13.342;2023-01-28T07:44:19;1.80;99.90
4962;DHT22;2496;52.468;13.342;2023-01-28T07:46:48;1.80;99.90
4962;DHT22;2496;52.468;13.342;2023-01-28T07:49:14;1.80;99.90
4962;DHT22;2496;52.468;13.342;2023-01-28T07:51:41;1.80;99.90
4962;DHT22;2496;52.468;13.342;2023-01-28T07:54:11;1.80;99.90
4962;DHT22;2496;52.468;13.342;2023-01-28T07:56:38;1.80;99.90
4962;DHT22;2496;52.468;13.342;2023-01-28T07:59:05;1.80;99.90
4962;DHT22;2496;52.468;13.342;2023-01-28T08:01:31;1.80;99.90
4962;DHT22;2496;52.468;13.342;2023-01-28T08:04:00;1.80;99.90
4962;DHT22;2496;52.468;13.342;2023-01-28T08:06:27;1.80;99.90
4962;DHT22;2496;52.468;13.342;2023-01-28T08:08:54;1.80;99.90
4962;DHT22;2496;52.468;13.342;2023-01-28T08:11:21;1.80;99.90
4962;DHT22;2496;52.468;13.342;2023-01-28T08:13:48;1.80;99.90
4962;DHT22;2496;52.468;13.342;2023-01-28T08:16:15;1.80;99.90
4962;DHT22;2496;52.468;13.342;2023-01-28T08:18:42;1.80;99.90
4962;DHT22;2496;52.468;13.342;2023-01-28T08:21:11;1.80;99.90
4962;DHT22;2496;52.468;13.342;2023-01-28T08:23:38;1.80;99.90
4962;DHT22;2496;52.468;13.342;2023-01-28T08:26:05;1.80;99.90
4962;DHT22;2496;52.468;13.342;2023-01-28T08:28:32;1.80;99.90
4962;DHT22;2496;52.468;13.342;2023-01-28T08:30:59;1.80;99.90
4962;DHT22;2496;52.468;13.342;2023-01-28T08:33:26;1.80;99.90
4962;DHT22;2496;52.468;13.342;2023-01-28T08:35:53;1.90;99.90
4962;DHT22;2496;52.468;13.342;2023-01-28T08:38:21;1.90;99.90
4962;DHT22;2496;52.468;13.342;2023-01-28T08:40:48;1.90;99.90
4962;DHT22;2496;52.468;13.342;2023-01-28T08:43:18;1.90;99.90
4962;DHT22;2496;52.468;13.342;2023-01-28T08:45:45;1.90;99.90
4962;DHT22;2496;52.468;13.342;2023-01-28T08:48:14;1.90;99.90
4962;DHT22;2496;52.468;13.342;2023-01-28T08:50:42;1.90;99.90
4962;DHT22;2496;52.468;13.342;2023-01-28T08:53:10;1.90;99.90
4962;DHT22;2496;52.468;13.342;2023-01-28T08:55:39;1.90;99.90
4962;DHT22;2496;52.468;13.342;2023-01-28T08:58:09;2.00;99.90
4962;DHT22;2496;52.468;13.342;2023-01-28T09:00:37;1.90;99.90
4962;DHT22;2496;52.468;13.342;2023-01-28T09:03:05;1.90;99.90
4962;DHT22;2496;52.468;13.342;2023-01-28T09:05:33;1.90;99.90
4962;DHT22;2496;52.468;13.342;2023-01-28T09:08:00;1.90;99.90
4962;DHT22;2496;52.468;13.342;2023-01-28T09:10:28;1.90;99.90
4962;DHT22;2496;52.468;13.342;2023-01-28T09:12:56;2.00;99.90
4962;DHT22;2496;52.468;13.342;2023-01-28T09:15:23;2.00;99.90
4962;DHT22;2496;52.468;13.342;2023-01-28T09:17:56;2.00;99.90
4962;DHT22;2496;52.468;13.342;2023-01-28T09:20:23;1.90;99.90
4962;DHT22;2496;52.468;13.342;2023-01-28T09:22:50;1.90;99.90
4962;DHT22;2496;52.468;13.342;2023-01-28T09:25:17;1.90;99.90
4962;DHT22;2496;52.468;13.342;2023-01-28T09:27:45;1.90;99.90
4962;DHT22;2496;52.468;13.342;2023-01-28T09:30:14;1.90;99.90
4962;DHT22;2496;52.468;13.342;2023-01-28T09:32:41;1.90;99.90
4962;DHT22;2496;52.468;13.342;2023-01-28T09:35:08;1.90;99.90
4962;DHT22;2496;52.468;13.342;2023-01-28T09:37:36;1.90;99.90
4962;DHT22;2496;52.468;13.342;2023-01-28T09:40:04;2.00;99.90
4962;DHT22;2496;52.468;13.342;2023-01-28T09:42:42;2.00;99.90
4962;DHT22;2496;52.468;13.342;2023-01-28T09:45:16;2.10;99.90
4962;DHT22;2496;52.468;13.342;2023-01-28T09:47:45;2.10;99.90
4962;DHT22;2496;52.468;13.342;2023-01-28T09:50:16;2.10;99.90
4962;DHT22;2496;52.468;13.342;2023-01-28T09:52:44;2.20;99.90
4962;DHT22;2496;52.468;13.342;2023-01-28T09:55:18;2.30;99.90
4962;DHT22;2496;52.468;13.342;2023-01-28T09:57:50;2.30;99.90
4962;DHT22;2496;52.468;13.342;2023-01-28T10:00:21;2.30;99.90
4962;DHT22;2496;52.468;13.342;2023-01-28T10:03:04;2.30;99.90
4962;DHT22;2496;52.468;13.342;2023-01-28T10:05:38;2.20;99.90
4962;DHT22;2496;52.468;13.342;2023-01-28T10:08:19;2.10;99.90
4962;DHT22;2496;52.468;13.342;2023-01-28T10:10:55;2.10;99.90
4962;DHT22;2496;52.468;13.342;2023-01-28T10:13:32;2.20;99.90
4962;DHT22;2496;52.468;13.342;2023-01-28T10:16:21;2.30;99.90
4962;DHT22;2496;52.468;13.342;2023-01-28T10:18:52;2.40;99.90
4962;DHT22;2496;52.468;13.342;2023-01-28T10:21:25;2.40;99.90
4962;DHT22;2496;52.468;13.342;2023-01-28T10:23:58;2.50;99.90
4962;DHT22;2496;52.468;13.342;2023-01-28T10:26:30;2.50;99.90
4962;DHT22;2496;52.468;13.342;2023-01-28T10:29:03;2.50;99.90
4962;DHT22;2496;52.468;13.342;2023-01-28T10:31:35;2.60;99.90
4962;DHT22;2496;52.468;13.342;2023-01-28T10:34:05;2.50;99.90
4962;DHT22;2496;52.468;13.342;2023-01-28T10:36:33;2.50;99.90
4962;DHT22;2496;52.468;13.342;2023-01-28T10:39:00;2.50;99.90
4962;DHT22;2496;52.468;13.342;2023-01-28T10:41:27;2.50;99.90
4962;DHT22;2496;52.468;13.342;2023-01-28T10:43:56;2.50;99.90
4962;DHT22;2496;52.468;13.342;2023-01-28T10:46:29;2.50;99.90
4962;DHT22;2496;52.468;13.342;2023-01-28T10:49:05;2.50;99.90
4962;DHT22;2496;52.468;13.342;2023-01-28T10:51:39;2.50;99.90
4962;DHT22;2496;52.468;13.342;2023-01-28T10:54:18;2.50;99.90
4962;DHT22;2496;52.468;13.342;2023-01-28T10:56:47;2.50;99.90
4962;DHT22;2496;52.468;13.342;2023-01-28T10:59:20;2.60;99.90
4962;DHT22;2496;52.468;13.342;2023-01-28T11:01:49;2.50;99.90
4962;DHT22;2496;52.468;13.342;2023-01-28T11:04:23;2.50;99.90
4962;DHT22;2496;52.468;13.342;2023-01-28T11:06:58;2.60;99.90
4962;DHT22;2496;52.468;13.342;2023-01-28T11:09:28;2.60;99.90
4962;DHT22;2496;52.468;13.342;2023-01-28T11:11:56;2.70;99.90
4962;DHT22;2496;52.468;13.342;2023-01-28T11:14:25;2.70;99.90
4962;DHT22;2496;52.468;13.342;2023-01-28T11:16:54;2.70;99.90
4962;DHT22;2496;52.468;13.342;2023-01-28T11:19:28;2.70;99.90
4962;DHT22;2496;52.468;13.342;2023-01-28T11:21:57;2.70;99.90
4962;DHT22;2496;52.468;13.342;2023-01-28T11:24:27;2.70;99.90
4962;DHT22;2496;52.468;13.342;2023-01-28T11:26:57;2.70;99.90
4962;DHT22;2496;52.468;13.342;2023-01-28T11:29:27;2.70;99.90
4962;DHT22;2496;52.468;13.342;2023-01-28T11:31:56;2.70;99.90
4962;DHT22;2496;52.468;13.342;2023-01-28T11:34:27;2.70;99.90
4962;DHT22;2496;52.468;13.342;2023-01-28T11:37:01;2.70;99.90
4962;DHT22;2496;52.468;13.342;2023-01-28T11:39:30;2.70;99.90
4962;DHT22;2496;52.468;13.342;2023-01-28T11:42:10;2.60;99.90
4962;DHT22;2496;52.468;13.342;2023-01-28T11:44:38;2.60;99.90
4962;DHT22;2496;52.468;13.342;2023-01-28T11:47:17;2.70;99.90
4962;DHT22;2496;52.468;13.342;2023-01-28T11:50:05;2.60;99.90
4962;DHT22;2496;52.468;13.342;2023-01-28T11:52:45;2.70;99.90
4962;DHT22;2496;52.468;13.342;2023-01-28T11:55:34;2.70;99.90
4962;DHT22;2496;52.468;13.342;2023-01-28T11:58:12;2.60;99.90
4962;DHT22;2496;52.468;13.342;2023-01-28T12:00:47;2.70;99.90
4962;DHT22;2496;52.468;13.342;2023-01-28T12:03:40;2.60;99.90
4962;DHT22;2496;52.468;13.342;2023-01-28T12:06:21;2.60;99.90
4962;DHT22;2496;52.468;13.342;2023-01-28T12:08:58;2.50;99.90
4962;DHT22;2496;52.468;13.342;2023-01-28T12:11:39;2.50;99.90
4962;DHT22;2496;52.468;13.342;2023-01-28T12:14:34;2.50;99.90
4962;DHT22;2496;52.468;13.342;2023-01-28T12:17:16;2.60;99.90
4962;DHT22;2496;52.468;13.342;2023-01-28T12:19:59;2.60;99.90
4962;DHT22;2496;52.468;13.342;2023-01-28T12:22:43;2.70;99.90
4962;DHT22;2496;52.468;13.342;2023-01-28T12:25:25;2.70;99.90
4962;DHT22;2496;52.468;13.342;2023-01-28T12:28:02;2.80;99.90
4962;DHT22;2496;52.468;13.342;2023-01-28T12:30:49;2.80;99.90
4962;DHT22;2496;52.468;13.342;2023-01-28T12:36:31;2.80;99.90
4962;DHT22;2496;52.468;13.342;2023-01-28T12:39:08;2.80;99.90
4962;DHT22;2496;52.468;13.342;2023-01-28T12:41:41;2.80;99.90
4962;DHT22;2496;52.468;13.342;2023-01-28T12:44:12;2.80;99.90
4962;DHT22;2496;52.468;13.342;2023-01-28T12:46:43;2.90;99.90
4962;DHT22;2496;52.468;13.342;2023-01-28T12:49:15;2.90;99.90
4962;DHT22;2496;52.468;13.342;2023-01-28T12:51:53;2.90;99.90
4962;DHT22;2496;52.468;13.342;2023-01-28T12:54:29;2.80;99.90
4962;DHT22;2496;52.468;13.342;2023-01-28T12:56:59;2.80;99.90
4962;DHT22;2496;52.468;13.342;2023-01-28T12:59:29;2.80;99.90
4962;DHT22;2496;52.468;13.342;2023-01-28T13:02:13;2.70;99.90
4962;DHT22;2496;52.468;13.342;2023-01-28T13:04:49;2.70;99.90
4962;DHT22;2496;52.468;13.342;2023-01-28T13:07:20;2.70;99.90
4962;DHT22;2496;52.468;13.342;2023-01-28T13:09:53;2.70;99.90
4962;DHT22;2496;52.468;13.342;2023-01-28T13:12:24;2.80;99.90
4962;DHT22;2496;52.468;13.342;2023-01-28T13:14:52;2.80;99.90
4962;DHT22;2496;52.468;13.342;2023-01-28T13:17:27;2.80;99.90
4962;DHT22;2496;52.468;13.342;2023-01-28T13:19:55;2.80;99.90
4962;DHT22;2496;52.468;13.342;2023-01-28T13:22:28;2.70;99.90
4962;DHT22;2496;52.468;13.342;2023-01-28T13:25:11;2.70;99.90
4962;DHT22;2496;52.468;13.342;2023-01-28T13:27:38;2.70;99.90
4962;DHT22;2496;52.468;13.342;2023-01-28T13:30:22;2.70;99.90
4962;DHT22;2496;52.468;13.342;2023-01-28T13:32:58;2.70;99.90
4962;DHT22;2496;52.468;13.342;2023-01-28T13:35:32;2.70;99.90
4962;DHT22;2496;52.468;13.342;2023-01-28T13:38:06;2.70;99.90
4962;DHT22;2496;52.468;13.342;2023-01-28T13:40:35;2.70;99.90
4962;DHT22;2496;52.468;13.342;2023-01-28T13:43:22;2.70;99.90
4962;DHT22;2496;52.468;13.342;2023-01-28T13:45:55;2.70;99.90
4962;DHT22;2496;52.468;13.342;2023-01-28T13:48:29;2.70;99.90
4962;DHT22;2496;52.468;13.342;2023-01-28T13:50:58;2.70;99.90
4962;DHT22;2496;52.468;13.342;2023-01-28T13:53:36;2.70;99.90
4962;DHT22;2496;52.468;13.342;2023-01-28T13:56:14;2.70;99.90
4962;DHT22;2496;52.468;13.342;2023-01-28T13:59:20;2.70;99.90
4962;DHT22;2496;52.468;13.342;2023-01-28T14:05:50;2.70;99.90
4962;DHT22;2496;52.468;13.342;2023-01-28T14:08:49;2.80;99.90
4962;DHT22;2496;52.468;13.342;2023-01-28T14:12:00;2.80;99.90
4962;DHT22;2496;52.468;13.342;2023-01-28T14:14:55;2.80;99.90
4962;DHT22;2496;52.468;13.342;2023-01-28T14:17:32;2.80;99.90
4962;DHT22;2496;52.468;13.342;2023-01-28T14:20:00;2.80;99.90
4962;DHT22;2496;52.468;13.342;2023-01-28T14:22:29;2.80;99.90
4962;DHT22;2496;52.468;13.342;2023-01-28T14:24:59;2.80;99.90
4962;DHT22;2496;52.468;13.342;2023-01-28T14:27:30;2.80;99.90
4962;DHT22;2496;52.468;13.342;2023-01-28T14:30:06;2.80;99.90
4962;DHT22;2496;52.468;13.342;2023-01-28T14:32:36;2.80;99.90
4962;DHT22;2496;52.468;13.342;2023-01-28T14:35:17;2.80;99.90
4962;DHT22;2496;52.468;13.342;2023-01-28T14:37:45;2.80;99.90
4962;DHT22;2496;52.468;13.342;2023-01-28T14:40:14;2.80;99.90
4962;DHT22;2496;52.468;13.342;2023-01-28T14:42:44;2.80;99.90
4962;DHT22;2496;52.468;13.342;2023-01-28T14:45:33;2.70;99.90
4962;DHT22;2496;52.468;13.342;2023-01-28T14:48:20;2.60;99.90
4962;DHT22;2496;52.468;13.342;2023-01-28T14:51:05;2.60;99.90
4962;DHT22;2496;52.468;13.342;2023-01-28T14:53:51;2.60;99.90
4962;DHT22;2496;52.468;13.342;2023-01-28T14:56:30;2.60;99.90
4962;DHT22;2496;52.468;13.342;2023-01-28T14:59:11;2.60;99.90
4962;DHT22;2496;52.468;13.342;2023-01-28T15:01:43;2.60;99.90
4962;DHT22;2496;52.468;13.342;2023-01-28T15:04:23;2.60;99.90
4962;DHT22;2496;52.468;13.342;2023-01-28T15:06:51;2.60;99.90
4962;DHT22;2496;52.468;13.342;2023-01-28T15:09:18;2.50;99.90
4962;DHT22;2496;52.468;13.342;2023-01-28T15:11:46;2.60;99.90
4962;DHT22;2496;52.468;13.342;2023-01-28T15:14:21;2.60;99.90
4962;DHT22;2496;52.468;13.342;2023-01-28T15:16:51;2.70;99.90
4962;DHT22;2496;52.468;13.342;2023-01-28T15:19:25;2.70;99.90
4962;DHT22;2496;52.468;13.342;2023-01-28T15:21:54;2.70;99.90
4962;DHT22;2496;52.468;13.342;2023-01-28T15:24:22;2.70;99.90
4962;DHT22;2496;52.468;13.342;2023-01-28T15:26:49;2.60;99.90
4962;DHT22;2496;52.468;13.342;2023-01-28T15:29:25;2.60;99.90
4962;DHT22;2496;52.468;13.342;2023-01-28T15:31:52;2.60;99.90
4962;DHT22;2496;52.468;13.342;2023-01-28T15:34:19;2.60;99.90
4962;DHT22;2496;52.468;13.342;2023-01-28T15:36:48;2.50;99.90
4962;DHT22;2496;52.468;13.342;2023-01-28T15:39:16;2.50;99.90
4962;DHT22;2496;52.468;13.342;2023-01-28T15:41:47;2.50;99.90
4962;DHT22;2496;52.468;13.342;2023-01-28T15:44:16;2.50;99.90
4962;DHT22;2496;52.468;13.342;2023-01-28T15:46:45;2.50;99.90
4962;DHT22;2496;52.468;13.342;2023-01-28T15:49:16;2.50;99.90
4962;DHT22;2496;52.468;13.342;2023-01-28T15:51:48;2.50;99.90
4962;DHT22;2496;52.468;13.342;2023-01-28T15:54:18;2.50;99.90
4962;DHT22;2496;52.468;13.342;2023-01-28T15:56:45;2.50;99.90
4962;DHT22;2496;52.468;13.342;2023-01-28T15:59:23;2.50;99.90
4962;DHT22;2496;52.468;13.342;2023-01-28T16:02:12;2.50;99.90
4962;DHT22;2496;52.468;13.342;2023-01-28T16:04:41;2.50;99.90
4962;DHT22;2496;52.468;13.342;2023-01-28T16:07:08;2.50;99.90
4962;DHT22;2496;52.468;13.342;2023-01-28T16:09:36;2.50;99.90
4962;DHT22;2496;52.468;13.342;2023-01-28T16:12:04;2.50;99.90
4962;DHT22;2496;52.468;13.342;2023-01-28T16:14:38;2.50;99.90
4962;DHT22;2496;52.468;13.342;2023-01-28T16:17:07;2.50;99.90
4962;DHT22;2496;52.468;13.342;2023-01-28T16:19:37;2.40;99.90
4962;DHT22;2496;52.468;13.342;2023-01-28T16:22:07;2.50;99.90
4962;DHT22;2496;52.468;13.342;2023-01-28T16:24:34;2.40;99.90
4962;DHT22;2496;52.468;13.342;2023-01-28T16:27:03;2.40;99.90
4962;DHT22;2496;52.468;13.342;2023-01-28T16:29:31;2.40;99.90
4962;DHT22;2496;52.468;13.342;2023-01-28T16:31:58;2.40;99.90
4962;DHT22;2496;52.468;13.342;2023-01-28T16:34:27;2.40;99.90
4962;DHT22;2496;52.468;13.342;2023-01-28T16:36:57;2.40;99.90
4962;DHT22;2496;52.468;13.342;2023-01-28T16:39:24;2.40;99.90